createdAt,value
2018-06-13T00:00:03.988Z,19.90
2018-06-13T00:01:04.013Z,19.92
2018-06-13T00:02:04.062Z,19.96
2018-06-13T00:03:04.028Z,19.97
2018-06-13T00:04:04.056Z,19.92
2018-06-13T00:05:04.067Z,19.93
2018-06-13T00:06:04.077Z,19.90
2018-06-13T00:07:04.108Z,19.96
2018-06-13T00:08:04.083Z,19.97
2018-06-13T00:09:04.105Z,20.03
2018-06-13T00:10:04.116Z,20.02
2018-06-13T00:11:04.130Z,19.94
2018-06-13T00:12:04.174Z,19.87
2018-06-13T00:13:04.159Z,19.97
2018-06-13T00:14:04.162Z,19.89
2018-06-13T00:15:04.176Z,19.90
2018-06-13T00:16:04.190Z,19.92
2018-06-13T00:17:04.218Z,19.87
2018-06-13T00:18:04.229Z,19.92
2018-06-13T00:19:04.223Z,19.89
2018-06-13T00:20:04.370Z,19.90
2018-06-13T00:21:04.248Z,19.94
2018-06-13T00:22:04.260Z,19.94
2018-06-13T00:23:04.299Z,19.94
2018-06-13T00:24:04.304Z,19.92
2018-06-13T00:25:04.317Z,20.00
2018-06-13T00:26:04.306Z,19.84
2018-06-13T00:27:04.318Z,19.93
2018-06-13T00:28:04.357Z,19.93
2018-06-13T00:29:04.387Z,20.02
2018-06-13T00:30:04.352Z,19.96
2018-06-13T00:31:04.380Z,19.93
2018-06-13T00:32:04.386Z,19.87
2018-06-13T00:33:04.419Z,19.92
2018-06-13T00:34:04.442Z,20.03
2018-06-13T00:35:04.456Z,20.03
2018-06-13T00:36:04.440Z,19.99
2018-06-13T00:37:04.467Z,20.04
2018-06-13T00:38:04.453Z,19.97
2018-06-13T00:39:04.459Z,19.97
2018-06-13T00:40:04.523Z,20.08
2018-06-13T00:41:04.527Z,20.08
2018-06-13T00:42:04.507Z,20.03
2018-06-13T00:43:04.517Z,20.08
2018-06-13T00:44:04.515Z,20.04
2018-06-13T00:45:04.582Z,20.07
2018-06-13T00:46:04.584Z,20.08
2018-06-13T00:47:04.627Z,20.02
2018-06-13T00:48:04.569Z,20.03
2018-06-13T00:49:04.598Z,20.07
2018-06-13T00:50:04.603Z,20.12
2018-06-13T00:51:04.628Z,20.07
2018-06-13T00:52:04.660Z,20.10
2018-06-13T00:53:04.640Z,20.04
2018-06-13T00:54:04.648Z,20.15
2018-06-13T00:55:04.720Z,20.03
2018-06-13T00:56:04.706Z,20.04
2018-06-13T00:57:04.680Z,19.99
2018-06-13T00:58:04.703Z,20.07
2018-06-13T00:59:04.706Z,20.02
2018-06-13T01:00:04.742Z,20.07
2018-06-13T01:01:04.748Z,20.04
2018-06-13T01:02:04.782Z,20.11
2018-06-13T01:03:04.762Z,20.10
2018-06-13T01:04:04.822Z,19.90
2018-06-13T01:05:04.783Z,19.96
2018-06-13T01:06:04.799Z,19.96
2018-06-13T01:07:04.799Z,19.93
2018-06-13T01:08:04.817Z,19.82
2018-06-13T01:09:04.860Z,19.84
2018-06-13T01:10:04.840Z,19.81
2018-06-13T01:11:04.847Z,19.92
2018-06-13T01:12:04.876Z,19.90
2018-06-13T01:13:04.908Z,19.78
2018-06-13T01:14:04.941Z,19.71
2018-06-13T01:15:04.900Z,19.72
2018-06-13T01:16:04.908Z,19.74
2018-06-13T01:17:04.922Z,19.77
2018-06-13T01:18:04.950Z,19.70
2018-06-13T01:19:05.014Z,19.72
2018-06-13T01:20:04.966Z,19.64
2018-06-13T01:21:04.980Z,19.64
2018-06-13T01:22:04.986Z,19.52
2018-06-13T01:23:05.020Z,19.59
2018-06-13T01:24:05.017Z,19.63
2018-06-13T01:25:05.040Z,19.62
2018-06-13T01:26:05.054Z,19.63
2018-06-13T01:27:05.058Z,19.57
2018-06-13T01:28:05.087Z,19.59
2018-06-13T01:29:05.068Z,19.67
2018-06-13T01:30:05.084Z,19.62
2018-06-13T01:31:05.099Z,19.62
2018-06-13T01:32:05.097Z,19.63
2018-06-13T01:33:05.144Z,19.63
2018-06-13T01:34:05.162Z,19.66
2018-06-13T01:35:05.140Z,19.71
2018-06-13T01:36:05.157Z,19.62
2018-06-13T01:37:05.198Z,19.57
2018-06-13T01:38:05.185Z,19.64
2018-06-13T01:39:05.241Z,19.57
2018-06-13T01:40:05.208Z,19.63
2018-06-13T01:41:05.222Z,19.56
2018-06-13T01:42:05.219Z,19.66
2018-06-13T01:43:05.243Z,19.62
2018-06-13T01:44:05.287Z,19.57
2018-06-13T01:45:05.290Z,19.49
2018-06-13T01:46:05.297Z,19.53
2018-06-13T01:47:05.298Z,19.45
2018-06-13T01:48:05.311Z,19.34
2018-06-13T01:49:05.304Z,19.30
2018-06-13T01:50:05.378Z,19.35
2018-06-13T01:51:05.338Z,19.24
2018-06-13T01:52:05.354Z,19.38
2018-06-13T01:53:05.357Z,19.27
2018-06-13T01:54:05.362Z,19.30
2018-06-13T01:55:05.405Z,19.24
2018-06-13T01:56:05.384Z,19.30
2018-06-13T01:57:05.404Z,19.29
2018-06-13T01:58:05.416Z,19.30
2018-06-13T01:59:05.438Z,19.35
2018-06-13T02:00:05.483Z,19.34
2018-06-13T02:01:05.462Z,19.22
2018-06-13T02:02:05.474Z,19.32
2018-06-13T02:03:05.471Z,19.30
2018-06-13T02:04:05.479Z,19.27
2018-06-13T02:05:05.522Z,19.35
2018-06-13T02:06:05.500Z,19.41
2018-06-13T02:07:05.512Z,19.34
2018-06-13T02:08:05.543Z,19.30
2018-06-13T02:09:05.570Z,19.27
2018-06-13T02:10:05.601Z,19.27
2018-06-13T02:11:05.567Z,19.22
2018-06-13T02:12:05.576Z,19.19
2018-06-13T02:13:05.601Z,19.22
2018-06-13T02:14:05.616Z,19.16
2018-06-13T02:15:05.664Z,19.20
2018-06-13T02:16:05.636Z,19.19
2018-06-13T02:17:05.685Z,19.20
2018-06-13T02:18:05.661Z,19.20
2018-06-13T02:19:05.662Z,19.17
2018-06-13T02:20:05.677Z,19.16
2018-06-13T02:21:05.692Z,19.20
2018-06-13T02:22:05.723Z,19.16
2018-06-13T02:23:05.775Z,19.01
2018-06-13T02:24:05.758Z,19.15
2018-06-13T02:25:05.736Z,19.07
2018-06-13T02:26:05.745Z,19.17
2018-06-13T02:27:05.794Z,19.16
2018-06-13T02:28:05.767Z,19.15
2018-06-13T02:29:05.834Z,19.09
2018-06-13T02:30:05.807Z,19.11
2018-06-13T02:31:05.831Z,19.11
2018-06-13T02:32:05.824Z,19.07
2018-06-13T02:33:05.842Z,18.98
2018-06-13T02:34:05.876Z,19.04
2018-06-13T02:35:05.923Z,18.97
2018-06-13T02:36:05.868Z,18.91
2018-06-13T02:37:05.888Z,18.92
2018-06-13T02:38:05.893Z,18.91
2018-06-13T02:39:05.895Z,18.81
2018-06-13T02:40:05.982Z,18.89
2018-06-13T02:41:05.920Z,18.88
2018-06-13T02:42:05.970Z,18.88
2018-06-13T02:43:05.961Z,18.85
2018-06-13T02:44:05.964Z,18.86
2018-06-13T02:45:05.980Z,18.92
2018-06-13T02:46:06.007Z,18.94
2018-06-13T02:47:06.026Z,18.91
2018-06-13T02:48:06.044Z,18.91
2018-06-13T02:49:06.037Z,18.89
2018-06-13T02:50:06.044Z,18.86
2018-06-13T02:51:06.038Z,18.76
2018-06-13T02:52:06.074Z,18.82
2018-06-13T02:53:06.097Z,18.73
2018-06-13T02:54:06.111Z,18.74
2018-06-13T02:55:06.189Z,18.70
2018-06-13T02:56:06.203Z,18.64
2018-06-13T02:57:06.114Z,18.51
2018-06-13T02:58:06.121Z,18.66
2018-06-13T02:59:06.216Z,18.68
2018-06-13T03:00:06.187Z,18.71
2018-06-13T03:01:06.206Z,18.71
2018-06-13T03:02:06.177Z,18.60
2018-06-13T03:03:06.203Z,18.63
2018-06-13T03:04:06.226Z,18.70
2018-06-13T03:05:06.224Z,18.73
2018-06-13T03:06:06.246Z,18.73
2018-06-13T03:07:06.270Z,18.81
2018-06-13T03:08:06.281Z,18.78
2018-06-13T03:09:06.249Z,18.73
2018-06-13T03:10:06.273Z,18.66
2018-06-13T03:11:06.311Z,18.61
2018-06-13T03:12:06.326Z,18.53
2018-06-13T03:13:06.303Z,18.63
2018-06-13T03:14:06.308Z,18.64
2018-06-13T03:15:06.330Z,18.51
2018-06-13T03:16:06.330Z,18.55
2018-06-13T03:17:06.363Z,18.64
2018-06-13T03:18:06.385Z,18.55
2018-06-13T03:19:06.386Z,18.49
2018-06-13T03:20:06.423Z,18.53
2018-06-13T03:21:06.390Z,18.53
2018-06-13T03:22:06.424Z,18.63
2018-06-13T03:23:06.411Z,18.66
2018-06-13T03:24:06.439Z,18.58
2018-06-13T03:25:06.471Z,18.51
2018-06-13T03:26:06.443Z,18.61
2018-06-13T03:27:06.475Z,18.64
2018-06-13T03:28:06.485Z,18.64
2018-06-13T03:29:06.534Z,18.60
2018-06-13T03:30:06.527Z,18.42
2018-06-13T03:31:06.563Z,18.53
2018-06-13T03:32:06.528Z,18.41
2018-06-13T03:33:06.538Z,18.52
2018-06-13T03:34:06.544Z,18.55
2018-06-13T03:35:06.566Z,18.53
2018-06-13T03:36:06.593Z,18.49
2018-06-13T03:37:06.583Z,18.49
2018-06-13T03:38:06.614Z,18.37
2018-06-13T03:39:06.607Z,18.41
2018-06-13T03:40:06.606Z,18.49
2018-06-13T03:41:06.747Z,18.45
2018-06-13T03:42:06.683Z,18.41
2018-06-13T03:43:06.648Z,18.43
2018-06-13T03:44:06.650Z,18.39
2018-06-13T03:45:06.660Z,18.48
2018-06-13T03:46:06.677Z,18.53
2018-06-13T03:47:06.727Z,18.58
2018-06-13T03:48:06.703Z,18.66
2018-06-13T03:49:06.748Z,18.61
2018-06-13T03:50:06.793Z,18.60
2018-06-13T03:51:06.742Z,18.68
2018-06-13T03:52:06.797Z,18.74
2018-06-13T03:53:06.768Z,18.76
2018-06-13T03:54:06.774Z,18.68
2018-06-13T03:55:06.813Z,18.73
2018-06-13T03:56:06.808Z,18.79
2018-06-13T03:57:06.816Z,18.76
2018-06-13T03:58:06.811Z,18.78
2018-06-13T03:59:06.860Z,18.74
2018-06-13T04:00:06.873Z,18.63
2018-06-13T04:01:06.864Z,18.73
2018-06-13T04:02:06.865Z,18.70
2018-06-13T04:03:06.882Z,18.66
2018-06-13T04:04:06.889Z,18.67
2018-06-13T04:05:06.926Z,18.70
2018-06-13T04:06:06.951Z,18.67
2018-06-13T04:07:06.926Z,18.68
2018-06-13T04:08:06.964Z,18.68
2018-06-13T04:09:06.948Z,18.67
2018-06-13T04:10:06.946Z,18.58
2018-06-13T04:11:06.959Z,18.53
2018-06-13T04:12:07.010Z,18.43
2018-06-13T04:13:07.045Z,18.51
2018-06-13T04:14:07.001Z,18.42
2018-06-13T04:15:07.026Z,18.42
2018-06-13T04:16:07.028Z,18.43
2018-06-13T04:17:07.050Z,18.45
2018-06-13T04:18:07.076Z,18.43
2018-06-13T04:19:07.076Z,18.28
2018-06-13T04:20:07.103Z,18.41
2018-06-13T04:21:07.078Z,18.48
2018-06-13T04:22:07.088Z,18.36
2018-06-13T04:23:07.117Z,18.41
2018-06-13T04:24:07.156Z,18.41
2018-06-13T04:25:07.147Z,18.43
2018-06-13T04:26:07.148Z,18.37
2018-06-13T04:27:07.173Z,18.48
2018-06-13T04:28:07.173Z,18.48
2018-06-13T04:29:07.226Z,18.41
2018-06-13T04:30:07.182Z,18.42
2018-06-13T04:31:07.196Z,18.37
2018-06-13T04:32:07.212Z,18.46
2018-06-13T04:33:07.233Z,18.45
2018-06-13T04:34:07.319Z,18.41
2018-06-13T04:35:07.257Z,18.46
2018-06-13T04:36:07.276Z,18.39
2018-06-13T04:37:07.273Z,18.42
2018-06-13T04:38:07.286Z,18.33
2018-06-13T04:39:07.331Z,18.31
2018-06-13T04:40:07.349Z,18.36
2018-06-13T04:41:07.311Z,18.33
2018-06-13T04:42:07.317Z,18.26
2018-06-13T04:43:07.346Z,18.28
2018-06-13T04:44:07.350Z,18.24
2018-06-13T04:45:07.398Z,18.28
2018-06-13T04:46:07.380Z,18.27
2018-06-13T04:47:07.404Z,18.16
2018-06-13T04:48:07.417Z,18.30
2018-06-13T04:49:07.424Z,18.31
2018-06-13T04:50:07.422Z,18.28
2018-06-13T04:51:07.421Z,18.36
2018-06-13T04:52:07.439Z,18.31
2018-06-13T04:53:07.532Z,18.34
2018-06-13T04:54:07.460Z,18.36
2018-06-13T04:55:07.475Z,18.37
2018-06-13T04:56:07.485Z,18.41
2018-06-13T04:57:07.515Z,18.36
2018-06-13T04:58:07.559Z,18.37
2018-06-13T04:59:07.533Z,18.34
2018-06-13T05:00:07.540Z,18.23
2018-06-13T05:01:07.541Z,18.27
2018-06-13T05:02:07.561Z,18.41
2018-06-13T05:03:07.600Z,18.33
2018-06-13T05:04:07.630Z,18.23
2018-06-13T05:05:07.629Z,18.11
2018-06-13T05:06:07.605Z,18.19
2018-06-13T05:07:07.605Z,18.21
2018-06-13T05:08:07.621Z,18.24
2018-06-13T05:09:07.671Z,18.30
2018-06-13T05:10:07.663Z,18.16
2018-06-13T05:11:07.685Z,18.30
2018-06-13T05:12:07.750Z,18.19
2018-06-13T05:13:07.675Z,18.23
2018-06-13T05:14:07.697Z,18.28
2018-06-13T05:15:07.709Z,18.28
2018-06-13T05:16:07.763Z,18.28
2018-06-13T05:17:07.733Z,18.30
2018-06-13T05:18:07.772Z,18.34
2018-06-13T05:19:07.759Z,18.34
2018-06-13T05:20:07.765Z,18.34
2018-06-13T05:21:07.795Z,18.31
2018-06-13T05:22:07.837Z,18.34
2018-06-13T05:23:07.810Z,18.39
2018-06-13T05:24:07.820Z,18.46
2018-06-13T05:25:07.836Z,18.49
2018-06-13T05:26:07.833Z,18.51
2018-06-13T05:27:07.897Z,18.53
2018-06-13T05:28:07.884Z,18.57
2018-06-13T05:29:07.859Z,18.52
2018-06-13T05:30:07.872Z,18.52
2018-06-13T05:31:07.900Z,18.46
2018-06-13T05:32:08.491Z,18.51
2018-06-13T05:33:07.938Z,18.52
2018-06-13T05:34:07.949Z,18.61
2018-06-13T05:35:07.928Z,18.53
2018-06-13T05:36:07.954Z,18.55
2018-06-13T05:37:07.974Z,18.48
2018-06-13T05:38:07.999Z,18.55
2018-06-13T05:39:08.022Z,18.66
2018-06-13T05:40:07.994Z,18.67
2018-06-13T05:41:08.015Z,18.63
2018-06-13T05:42:08.043Z,18.60
2018-06-13T05:43:08.041Z,18.68
2018-06-13T05:44:08.073Z,18.71
2018-06-13T05:45:08.081Z,18.73
2018-06-13T05:46:08.068Z,18.82
2018-06-13T05:47:08.105Z,18.74
2018-06-13T05:48:08.103Z,18.74
2018-06-13T05:49:08.105Z,18.74
2018-06-13T05:50:08.113Z,18.71
2018-06-13T05:51:08.156Z,18.79
2018-06-13T05:52:08.134Z,18.70
2018-06-13T05:53:08.195Z,18.82
2018-06-13T05:54:08.178Z,18.83
2018-06-13T05:55:08.190Z,18.81
2018-06-13T05:56:08.183Z,18.76
2018-06-13T05:57:08.201Z,18.79
2018-06-13T05:58:08.255Z,18.73
2018-06-13T05:59:08.215Z,18.81
2018-06-13T06:00:08.228Z,18.64
2018-06-13T06:01:08.281Z,18.82
2018-06-13T06:02:08.244Z,18.73
2018-06-13T06:03:08.255Z,18.83
2018-06-13T06:04:08.293Z,18.88
2018-06-13T06:05:08.279Z,18.82
2018-06-13T06:06:08.332Z,18.88
2018-06-13T06:07:08.318Z,18.74
2018-06-13T06:08:08.332Z,18.86
2018-06-13T06:09:08.383Z,18.86
2018-06-13T06:10:08.409Z,18.83
2018-06-13T06:11:08.409Z,18.91
2018-06-13T06:12:08.375Z,18.85
2018-06-13T06:13:08.377Z,18.91
2018-06-13T06:14:08.401Z,18.85
2018-06-13T06:15:08.410Z,18.89
2018-06-13T06:16:08.450Z,18.86
2018-06-13T06:17:08.445Z,18.94
2018-06-13T06:18:08.449Z,18.94
2018-06-13T06:19:09.381Z,18.88
2018-06-13T06:20:08.516Z,18.82
2018-06-13T06:21:08.478Z,18.91
2018-06-13T06:22:08.496Z,18.94
2018-06-13T06:23:08.507Z,19.05
2018-06-13T06:24:08.531Z,18.98
2018-06-13T06:25:08.551Z,18.96
2018-06-13T06:26:08.648Z,19.04
2018-06-13T06:27:08.773Z,19.08
2018-06-13T06:28:08.620Z,19.12
2018-06-13T06:29:08.565Z,19.15
2018-06-13T06:30:08.584Z,19.04
2018-06-13T06:31:08.587Z,19.11
2018-06-13T06:32:08.653Z,19.04
2018-06-13T06:33:08.650Z,19.08
2018-06-13T06:34:08.634Z,19.11
2018-06-13T06:35:08.641Z,19.15
2018-06-13T06:36:08.647Z,19.04
2018-06-13T06:37:08.690Z,19.05
2018-06-13T06:38:08.701Z,19.05
2018-06-13T06:39:08.725Z,19.17
2018-06-13T06:40:08.728Z,19.12
2018-06-13T06:41:08.714Z,19.15
2018-06-13T06:42:08.754Z,19.08
2018-06-13T06:43:08.800Z,19.12
2018-06-13T06:44:08.748Z,19.15
2018-06-13T06:45:08.744Z,19.17
2018-06-13T06:46:08.763Z,19.22
2018-06-13T06:47:08.770Z,19.00
2018-06-13T06:48:08.814Z,19.09
2018-06-13T06:49:08.797Z,19.08
2018-06-13T06:50:08.836Z,19.04
2018-06-13T06:51:08.816Z,19.04
2018-06-13T06:52:08.853Z,18.94
2018-06-13T06:53:08.868Z,19.05
2018-06-13T06:54:08.857Z,19.09
2018-06-13T06:55:08.995Z,19.09
2018-06-13T06:56:08.873Z,19.16
2018-06-13T06:57:08.885Z,19.19
2018-06-13T06:58:08.917Z,19.16
2018-06-13T06:59:08.926Z,19.30
2018-06-13T07:00:08.955Z,19.19
2018-06-13T07:01:08.962Z,19.22
2018-06-13T07:02:08.962Z,19.26
2018-06-13T07:03:08.999Z,19.23
2018-06-13T07:04:08.979Z,19.26
2018-06-13T07:05:08.997Z,19.27
2018-06-13T07:06:08.998Z,19.23
2018-06-13T07:07:09.039Z,19.24
2018-06-13T07:08:09.032Z,19.30
2018-06-13T07:09:09.032Z,19.38
2018-06-13T07:10:09.082Z,19.35
2018-06-13T07:11:09.059Z,19.32
2018-06-13T07:12:09.107Z,19.42
2018-06-13T07:13:09.113Z,19.30
2018-06-13T07:14:09.106Z,19.29
2018-06-13T07:15:09.149Z,19.37
2018-06-13T07:16:09.112Z,19.29
2018-06-13T07:17:09.136Z,19.30
2018-06-13T07:18:09.159Z,19.29
2018-06-13T07:19:09.151Z,19.30
2018-06-13T07:20:09.212Z,19.35
2018-06-13T07:21:09.190Z,19.32
2018-06-13T07:22:09.215Z,19.38
2018-06-13T07:23:09.220Z,19.37
2018-06-13T07:24:09.230Z,19.45
2018-06-13T07:25:09.261Z,19.56
2018-06-13T07:26:09.246Z,19.60
2018-06-13T07:27:09.251Z,19.55
2018-06-13T07:28:09.301Z,19.57
2018-06-13T07:29:09.282Z,19.62
2018-06-13T07:30:09.291Z,19.57
2018-06-13T07:31:09.332Z,19.56
2018-06-13T07:32:09.321Z,19.55
2018-06-13T07:33:09.356Z,19.63
2018-06-13T07:34:09.340Z,19.66
2018-06-13T07:35:09.355Z,19.62
2018-06-13T07:36:09.365Z,19.70
2018-06-13T07:37:09.483Z,19.74
2018-06-13T07:38:09.378Z,19.77
2018-06-13T07:39:09.406Z,19.67
2018-06-13T07:40:09.410Z,19.87
2018-06-13T07:41:09.419Z,19.78
2018-06-13T07:42:09.484Z,19.84
2018-06-13T07:43:09.454Z,19.92
2018-06-13T07:44:09.504Z,19.84
2018-06-13T07:45:09.478Z,19.92
2018-06-13T07:46:09.490Z,19.90
2018-06-13T07:47:09.516Z,19.94
2018-06-13T07:48:09.508Z,19.96
2018-06-13T07:49:09.562Z,20.02
2018-06-13T07:50:09.587Z,20.10
2018-06-13T07:51:09.549Z,20.04
2018-06-13T07:52:09.554Z,20.14
2018-06-13T07:53:09.609Z,20.15
2018-06-13T07:54:09.592Z,20.07
2018-06-13T07:55:09.646Z,20.17
2018-06-13T07:56:09.605Z,20.27
2018-06-13T07:57:09.638Z,20.15
2018-06-13T07:58:09.661Z,20.24
2018-06-13T07:59:09.703Z,20.34
2018-06-13T08:00:09.673Z,20.21
2018-06-13T08:01:09.682Z,20.22
2018-06-13T08:02:09.718Z,20.22
2018-06-13T08:03:09.701Z,20.07
2018-06-13T08:04:09.779Z,20.10
2018-06-13T08:05:09.757Z,20.14
2018-06-13T08:06:09.749Z,20.12
2018-06-13T08:07:09.754Z,20.19
2018-06-13T08:08:09.760Z,20.24
2018-06-13T08:09:09.830Z,20.33
2018-06-13T08:10:09.807Z,20.36
2018-06-13T08:11:09.784Z,20.19
2018-06-13T08:12:09.826Z,20.19
2018-06-13T08:13:09.824Z,20.14
2018-06-13T08:14:09.881Z,20.17
2018-06-13T08:15:09.896Z,20.11
2018-06-13T08:16:09.858Z,20.12
2018-06-13T08:17:09.861Z,20.10
2018-06-13T08:18:09.886Z,20.17
2018-06-13T08:19:09.911Z,20.08
2018-06-13T08:20:09.965Z,20.15
2018-06-13T08:21:09.926Z,20.11
2018-06-13T08:22:09.943Z,20.14
2018-06-13T08:23:09.943Z,20.07
2018-06-13T08:24:09.959Z,20.12
2018-06-13T08:25:10.038Z,20.04
2018-06-13T08:26:10.037Z,20.12
2018-06-13T08:27:10.051Z,20.10
2018-06-13T08:28:10.020Z,20.14
2018-06-13T08:29:10.013Z,20.15
2018-06-13T08:30:10.038Z,20.17
2018-06-13T08:31:10.045Z,20.04
2018-06-13T08:32:10.092Z,20.21
2018-06-13T08:33:10.070Z,20.19
2018-06-13T08:34:10.072Z,20.15
2018-06-13T08:35:10.137Z,20.24
2018-06-13T08:36:10.100Z,20.18
2018-06-13T08:37:10.151Z,20.24
2018-06-13T08:38:10.162Z,20.26
2018-06-13T08:39:10.155Z,20.19
2018-06-13T08:40:10.151Z,20.22
2018-06-13T08:41:10.166Z,20.40
2018-06-13T08:42:10.176Z,20.40
2018-06-13T08:43:10.247Z,20.34
2018-06-13T08:44:10.198Z,20.24
2018-06-13T08:45:10.213Z,20.29
2018-06-13T08:46:10.227Z,20.22
2018-06-13T08:47:10.244Z,20.24
2018-06-13T08:48:10.301Z,20.24
2018-06-13T08:49:10.373Z,20.17
2018-06-13T08:50:10.316Z,20.07
2018-06-13T08:51:10.292Z,20.17
2018-06-13T08:52:10.298Z,20.08
2018-06-13T08:53:10.318Z,20.11
2018-06-13T08:54:10.331Z,20.02
2018-06-13T08:55:10.430Z,20.04
2018-06-13T08:56:10.351Z,20.10
2018-06-13T08:57:10.357Z,20.15
2018-06-13T08:58:10.375Z,20.12
2018-06-13T08:59:10.381Z,20.10
2018-06-13T09:00:10.423Z,19.87
2018-06-13T09:01:10.457Z,19.81
2018-06-13T09:02:10.417Z,19.74
2018-06-13T09:03:10.461Z,19.66
2018-06-13T09:04:10.496Z,19.64
2018-06-13T09:05:10.466Z,19.56
2018-06-13T09:06:10.464Z,19.57
2018-06-13T09:07:10.494Z,19.66
2018-06-13T09:08:10.498Z,19.67
2018-06-13T09:09:10.640Z,19.81
2018-06-13T09:10:10.537Z,19.81
2018-06-13T09:11:10.545Z,19.89
2018-06-13T09:12:10.553Z,19.94
2018-06-13T09:13:10.597Z,19.94
2018-06-13T09:14:10.587Z,19.92
2018-06-13T09:15:10.614Z,19.94
2018-06-13T09:16:10.621Z,20.02
2018-06-13T09:17:10.611Z,20.04
2018-06-13T09:18:10.624Z,20.07
2018-06-13T09:19:10.631Z,20.12
2018-06-13T09:20:10.689Z,20.14
2018-06-13T09:21:10.701Z,20.22
2018-06-13T09:22:10.664Z,20.14
2018-06-13T09:23:10.715Z,20.22
2018-06-13T09:24:10.696Z,20.21
2018-06-13T09:25:10.700Z,20.22
2018-06-13T09:26:10.764Z,20.39
2018-06-13T09:27:10.776Z,20.36
2018-06-13T09:28:10.740Z,20.21
2018-06-13T09:29:10.755Z,20.11
2018-06-13T09:30:10.769Z,19.97
2018-06-13T09:31:10.841Z,19.85
2018-06-13T09:32:10.842Z,20.07
2018-06-13T09:33:10.830Z,19.87
2018-06-13T09:34:10.875Z,19.93
2018-06-13T09:35:10.825Z,19.90
2018-06-13T09:36:10.843Z,19.90
2018-06-13T09:37:10.859Z,19.93
2018-06-13T09:38:10.880Z,19.82
2018-06-13T09:39:10.921Z,19.89
2018-06-13T09:40:10.926Z,19.84
2018-06-13T09:41:10.915Z,19.82
2018-06-13T09:42:10.933Z,19.90
2018-06-13T09:43:10.928Z,19.94
2018-06-13T09:44:10.940Z,19.90
2018-06-13T09:45:11.009Z,19.78
2018-06-13T09:46:12.016Z,19.78
2018-06-13T09:47:15.130Z,19.66
2018-06-13T09:48:11.019Z,19.67
2018-06-13T09:49:11.078Z,19.64
2018-06-13T09:50:11.089Z,19.63
2018-06-13T09:51:11.099Z,19.59
2018-06-13T09:52:11.050Z,19.64
2018-06-13T09:53:11.203Z,19.47
2018-06-13T09:54:11.077Z,19.57
2018-06-13T09:55:11.075Z,19.59
2018-06-13T09:56:11.094Z,19.67
2018-06-13T09:57:11.135Z,19.55
2018-06-13T09:58:11.135Z,19.63
2018-06-13T09:59:11.178Z,19.59
2018-06-13T10:00:11.222Z,19.37
2018-06-13T10:01:11.163Z,19.49
2018-06-13T10:02:11.203Z,19.47
2018-06-13T10:03:11.198Z,19.53
2018-06-13T10:04:11.227Z,19.62
2018-06-13T10:05:11.200Z,19.63
2018-06-13T10:06:11.208Z,19.63
2018-06-13T10:07:11.216Z,19.59
2018-06-13T10:08:11.268Z,19.53
2018-06-13T10:09:11.335Z,19.59
2018-06-13T10:10:11.280Z,19.53
2018-06-13T10:11:11.322Z,19.59
2018-06-13T10:12:11.287Z,19.59
2018-06-13T10:13:11.294Z,19.55
2018-06-13T10:14:11.346Z,19.47
2018-06-13T10:15:11.317Z,19.63
2018-06-13T10:16:11.323Z,19.63
2018-06-13T10:17:11.367Z,19.66
2018-06-13T10:18:11.347Z,19.75
2018-06-13T10:19:11.367Z,19.70
2018-06-13T10:20:11.373Z,19.81
2018-06-13T10:21:11.441Z,19.75
2018-06-13T10:22:11.439Z,19.90
2018-06-13T10:23:11.408Z,19.89
2018-06-13T10:24:11.427Z,19.94
2018-06-13T10:25:11.455Z,19.97
2018-06-13T10:26:11.486Z,19.99
2018-06-13T10:27:11.491Z,20.07
2018-06-13T10:28:11.473Z,20.15
2018-06-13T10:29:11.486Z,20.10
2018-06-13T10:30:11.518Z,20.19
2018-06-13T10:31:11.526Z,20.21
2018-06-13T10:32:11.546Z,20.22
2018-06-13T10:33:11.582Z,20.19
2018-06-13T10:34:11.557Z,20.34
2018-06-13T10:35:11.557Z,20.24
2018-06-13T10:36:11.570Z,20.33
2018-06-13T10:37:11.710Z,20.30
2018-06-13T10:38:11.620Z,20.34
2018-06-13T10:39:11.620Z,20.39
2018-06-13T10:40:11.632Z,20.42
2018-06-13T10:41:11.638Z,20.50
2018-06-13T10:42:11.698Z,20.44
2018-06-13T10:43:11.672Z,20.42
2018-06-13T10:44:11.705Z,20.39
2018-06-13T10:45:11.685Z,20.39
2018-06-13T10:46:11.778Z,20.34
2018-06-13T10:47:11.734Z,20.30
2018-06-13T10:48:11.728Z,20.44
2018-06-13T10:49:11.779Z,20.44
2018-06-13T10:50:11.820Z,20.52
2018-06-13T10:51:11.760Z,20.66
2018-06-13T10:52:11.779Z,20.49
2018-06-13T10:53:11.823Z,20.49
2018-06-13T10:54:11.896Z,20.55
2018-06-13T10:55:11.841Z,20.66
2018-06-13T10:56:11.861Z,20.68
2018-06-13T10:57:11.865Z,20.59
2018-06-13T10:58:11.868Z,20.66
2018-06-13T10:59:11.899Z,20.56
2018-06-13T11:00:11.881Z,20.64
2018-06-13T11:01:11.929Z,20.70
2018-06-13T11:02:11.914Z,20.59
2018-06-13T11:03:12.000Z,20.60
2018-06-13T11:04:11.961Z,20.63
2018-06-13T11:05:11.954Z,20.73
2018-06-13T11:06:12.020Z,20.59
2018-06-13T11:07:12.042Z,20.60
2018-06-13T11:08:12.005Z,20.49
2018-06-13T11:09:12.012Z,20.52
2018-06-13T11:10:12.013Z,20.42
2018-06-13T11:11:12.093Z,20.33
2018-06-13T11:12:12.033Z,20.30
2018-06-13T11:13:12.048Z,20.12
2018-06-13T11:14:12.073Z,20.10
2018-06-13T11:15:12.068Z,20.11
2018-06-13T11:16:12.121Z,20.12
2018-06-13T11:17:12.121Z,20.08
2018-06-13T11:18:12.119Z,20.26
2018-06-13T11:19:12.125Z,20.33
2018-06-13T11:20:12.146Z,20.36
2018-06-13T11:21:12.171Z,20.33
2018-06-13T11:22:12.149Z,20.36
2018-06-13T11:23:12.163Z,20.30
2018-06-13T11:24:12.211Z,20.40
2018-06-13T11:25:12.226Z,20.40
2018-06-13T11:26:12.277Z,20.37
2018-06-13T11:27:12.228Z,20.22
2018-06-13T11:28:12.276Z,20.33
2018-06-13T11:29:12.237Z,20.32
2018-06-13T11:30:12.254Z,20.22
2018-06-13T11:31:12.310Z,20.24
2018-06-13T11:32:12.288Z,20.21
2018-06-13T11:33:12.363Z,20.11
2018-06-13T11:34:12.298Z,20.10
2018-06-13T11:35:12.329Z,20.11
2018-06-13T11:36:12.367Z,20.03
2018-06-13T11:37:12.467Z,20.21
2018-06-13T11:38:12.380Z,20.21
2018-06-13T11:39:12.376Z,20.12
2018-06-13T11:40:12.384Z,20.17
2018-06-13T11:41:12.385Z,20.19
2018-06-13T11:42:12.416Z,20.17
2018-06-13T11:43:12.436Z,20.22
2018-06-13T11:44:12.420Z,20.15
2018-06-13T11:45:12.550Z,20.22
2018-06-13T11:46:12.475Z,20.14
2018-06-13T11:47:12.476Z,20.19
2018-06-13T11:48:12.500Z,20.18
2018-06-13T11:49:12.484Z,20.18
2018-06-13T11:50:12.550Z,20.22
2018-06-13T11:51:12.514Z,20.22
2018-06-13T11:52:12.526Z,20.18
2018-06-13T11:53:12.530Z,20.24
2018-06-13T11:54:12.544Z,20.19
2018-06-13T11:55:12.626Z,20.21
2018-06-13T11:56:12.597Z,20.24
2018-06-13T11:57:12.597Z,20.36
2018-06-13T11:58:12.651Z,20.32
2018-06-13T11:59:12.645Z,20.21
2018-06-13T12:00:12.623Z,20.15
2018-06-13T12:01:12.669Z,20.15
2018-06-13T12:02:12.648Z,20.22
2018-06-13T12:03:12.778Z,20.18
2018-06-13T12:04:12.697Z,20.21
2018-06-13T12:05:12.703Z,20.27
2018-06-13T12:06:12.819Z,20.21
2018-06-13T12:07:12.717Z,20.18
2018-06-13T12:08:12.749Z,20.19
2018-06-13T12:09:12.731Z,20.22
2018-06-13T12:10:12.780Z,20.19
2018-06-13T12:11:12.757Z,20.14
2018-06-13T12:12:12.792Z,20.11
2018-06-13T12:13:12.805Z,20.03
2018-06-13T12:14:12.792Z,20.12
2018-06-13T12:15:12.828Z,20.10
2018-06-13T12:16:12.818Z,20.12
2018-06-13T12:17:12.836Z,19.99
2018-06-13T12:18:12.837Z,19.87
2018-06-13T12:19:12.866Z,19.99
2018-06-13T12:20:12.963Z,19.93
2018-06-13T12:21:12.880Z,19.78
2018-06-13T12:22:12.894Z,19.79
2018-06-13T12:23:12.901Z,19.71
2018-06-13T12:24:12.924Z,19.77
2018-06-13T12:25:12.955Z,19.82
2018-06-13T12:26:13.005Z,19.71
2018-06-13T12:27:12.957Z,19.71
2018-06-13T12:28:12.971Z,19.70
2018-06-13T12:29:12.974Z,19.72
2018-06-13T12:30:13.037Z,19.60
2018-06-13T12:31:13.056Z,19.56
2018-06-13T12:32:13.043Z,19.66
2018-06-13T12:33:13.024Z,19.66
2018-06-13T12:34:13.124Z,19.72
2018-06-13T12:35:13.086Z,19.62
2018-06-13T12:36:13.065Z,19.74
2018-06-13T12:37:13.083Z,19.59
2018-06-13T12:38:13.115Z,19.75
2018-06-13T12:39:13.095Z,19.70
2018-06-13T12:40:13.191Z,19.72
2018-06-13T12:41:13.168Z,19.60
2018-06-13T12:42:13.160Z,19.59
2018-06-13T12:43:13.146Z,19.56
2018-06-13T12:44:13.154Z,19.48
2018-06-13T12:45:13.216Z,19.57
2018-06-13T12:46:13.579Z,19.44
2018-06-13T12:47:13.245Z,19.53
2018-06-13T12:48:13.266Z,19.60
2018-06-13T12:49:13.223Z,19.59
2018-06-13T12:50:13.227Z,19.64
2018-06-13T12:51:14.045Z,19.70
2018-06-13T12:52:13.286Z,19.74